createdAt,value
2023-03-07T00:14:22.785Z,3.12
2023-03-07T00:34:22.759Z,3.67
2023-03-07T00:54:22.737Z,3.89
2023-03-07T01:14:22.724Z,4.06
2023-03-07T01:34:22.691Z,4.11
2023-03-07T01:54:22.654Z,4.13
2023-03-07T02:14:22.636Z,4.13
2023-03-07T02:34:22.606Z,4.16
2023-03-07T02:54:22.585Z,4.12
2023-03-07T03:14:22.539Z,4.16
2023-03-07T03:34:22.525Z,4.11
2023-03-07T03:54:22.491Z,4.13
2023-03-07T04:14:22.459Z,4.04
2023-03-07T04:54:22.404Z,3.47
2023-03-07T06:14:22.286Z,3.32
2023-03-07T06:34:22.277Z,3.36
2023-03-07T06:54:22.270Z,3.53
2023-03-07T07:14:22.216Z,3.82
2023-03-07T07:34:22.209Z,3.87
2023-03-07T07:54:22.201Z,3.47
2023-03-07T08:14:22.245Z,3.05
2023-03-07T08:54:22.137Z,2.56
2023-03-07T09:14:22.071Z,1.88
2023-03-07T09:34:22.133Z,1.74
2023-03-07T09:54:22.017Z,1.68
2023-03-07T10:14:22.050Z,1.43
2023-03-07T10:34:26.912Z,1.59
2023-03-07T11:14:21.998Z,1.1
2023-03-07T11:34:21.901Z,0.96
2023-03-07T11:54:21.951Z,0.98
2023-03-07T12:14:21.851Z,1.2
2023-03-07T12:34:21.823Z,1.59
2023-03-07T12:54:21.796Z,1.79
2023-03-07T13:14:21.817Z,1.88
2023-03-07T13:34:21.749Z,1.9
2023-03-07T13:54:21.724Z,2.14
2023-03-07T14:14:21.716Z,2.24
2023-03-07T14:34:21.683Z,2.45
2023-03-07T14:54:21.644Z,2.45
2023-03-07T15:14:21.668Z,2.42
2023-03-07T15:34:21.614Z,2.44
2023-03-07T15:54:21.588Z,2.39
2023-03-07T16:14:21.557Z,2.17
2023-03-07T16:54:21.510Z,1.11
2023-03-07T17:14:21.500Z,1.11
2023-03-07T17:34:21.454Z,0.94
2023-03-07T17:54:21.431Z,0.9
2023-03-07T18:34:21.398Z,1.11
2023-03-07T18:54:21.362Z,1.17
2023-03-07T19:14:21.353Z,1.05
2023-03-07T19:34:21.328Z,0.97
2023-03-07T19:54:21.305Z,0.88
2023-03-07T20:14:21.286Z,0.9
2023-03-07T20:34:22.584Z,0.89
2023-03-07T20:54:21.237Z,0.99
2023-03-07T21:14:21.228Z,1.09
2023-03-07T21:34:21.194Z,1.17
2023-03-07T21:54:21.160Z,1
2023-03-07T22:14:21.129Z,1.01
2023-03-07T22:34:21.121Z,1.06
2023-03-07T22:54:21.081Z,1.14
2023-03-07T23:14:21.074Z,1.18
2023-03-07T23:34:21.083Z,1.06
2023-03-07T23:54:21.018Z,0.98
